Time;durP1;ratioP1;P1;durP2;ratioP2;P2;SDS_P1;SDS_P2;PMS_P1;PMS_P2;Temp;Humidity;BMP_temperature;BMP_pressure;BME280_temperature;BME280_humidity;BME280_pressure;Samples;Min_cycle;Max_cycle;Signal;HPM_P1;HPM_P2
2022/10/27 00:00:53;;;;;;;40.05;9.88;;;13.30;99.90;;;;;;5035621;28;20053;-77
2022/10/27 00:03:21;;;;;;;51.88;12.23;;;13.20;99.90;;;;;;5017025;28;20080;-77
2022/10/27 00:05:48;;;;;;;38.45;10.02;;;13.20;99.90;;;;;;5035347;28;20045;-77
2022/10/27 00:08:19;;;;;;;38.33;10.07;;;13.20;99.90;;;;;;5034131;28;20050;-77
2022/10/27 00:10:58;;;;;;;33.13;9.65;;;13.30;99.90;;;;;;5035505;28;20057;-76
2022/10/27 00:13:26;;;;;;;40.10;10.23;;;13.30;99.90;;;;;;5035429;28;20068;-77
2022/10/27 00:16:09;;;;;;;37.58;10.20;;;13.20;99.90;;;;;;5033394;28;20045;-77
2022/10/27 00:18:37;;;;;;;42.00;9.93;;;13.20;99.90;;;;;;5028602;28;20071;-76
2022/10/27 00:21:10;;;;;;;34.72;8.30;;;13.30;99.90;;;;;;5015264;28;20053;-76
2022/10/27 00:23:38;;;;;;;36.67;9.15;;;13.20;99.90;;;;;;5014263;28;20054;-76
2022/10/27 00:26:09;;;;;;;30.17;9.63;;;13.20;99.90;;;;;;5015293;28;20068;-76
2022/10/27 00:28:37;;;;;;;38.03;10.82;;;13.20;99.90;;;;;;5014207;28;20412;-76
2022/10/27 00:31:10;;;;;;;36.50;13.10;;;13.20;99.90;;;;;;5015040;28;20056;-77
2022/10/27 00:33:38;;;;;;;50.45;15.05;;;13.10;99.90;;;;;;5015147;28;20042;-76
2022/10/27 00:36:11;;;;;;;44.78;17.02;;;13.10;99.90;;;;;;4997283;28;20041;-77
2022/10/27 00:38:39;;;;;;;56.97;17.50;;;13.10;99.90;;;;;;5015356;28;20045;-76
2022/10/27 00:41:14;;;;;;;42.35;17.23;;;13.50;99.90;;;;;;5015288;28;20061;-77
2022/10/27 00:43:42;;;;;;;53.35;17.85;;;13.60;99.90;;;;;;5014055;28;20057;-77
2022/10/27 00:46:22;;;;;;;43.90;16.15;;;13.00;99.90;;;;;;5015420;28;20045;-76
2022/10/27 00:48:53;;;;;;;44.38;14.20;;;13.00;99.90;;;;;;4997170;28;20480;-77
2022/10/27 00:51:21;;;;;;;52.60;14.70;;;12.90;99.90;;;;;;4997805;28;20057;-78
2022/10/27 00:53:49;;;;;;;50.28;14.27;;;13.00;99.90;;;;;;4997807;28;20050;-76
2022/10/27 00:56:18;;;;;;;43.42;15.90;;;12.90;99.90;;;;;;4996966;28;20049;-76
2022/10/27 00:58:47;;;;;;;43.47;14.15;;;12.90;99.90;;;;;;5014899;28;20358;-76
2022/10/27 01:01:15;;;;;;;51.72;15.90;;;12.90;99.90;;;;;;4997791;28;20050;-76
2022/10/27 01:03:43;;;;;;;42.22;14.95;;;13.00;99.90;;;;;;5013971;28;20061;-77
2022/10/27 01:06:13;;;;;;;52.60;16.27;;;13.00;99.90;;;;;;4997862;28;20050;-77
2022/10/27 01:08:41;;;;;;;56.55;21.30;;;12.90;99.90;;;;;;5013719;28;20056;-77
2022/10/27 01:11:08;;;;;;;;;;;12.90;99.90;;;;;;4998366;28;20067;-76
2022/10/27 01:13:36;;;;;;;48.17;20.83;;;13.00;99.90;;;;;;5014965;28;19921;-77
2022/10/27 01:16:26;;;;;;;54.58;22.90;;;13.00;99.90;;;;;;5013836;28;20042;-77
2022/10/27 01:19:32;;;;;;;79.30;33.05;;;13.00;99.90;;;;;;5014874;28;20473;-76
2022/10/27 01:22:28;;;;;;;53.45;25.40;;;13.00;99.90;;;;;;4965022;28;20046;-76
2022/10/27 01:25:12;;;;;;;74.35;27.45;;;13.00;99.90;;;;;;5014875;28;20053;-76
2022/10/27 01:27:49;;;;;;;67.35;26.83;;;12.90;99.90;;;;;;4997927;28;20050;-76
2022/10/27 01:30:19;;;;;;;53.08;22.27;;;13.00;99.90;;;;;;5013653;28;20046;-77
2022/10/27 01:32:59;;;;;;;46.42;21.60;;;12.90;99.90;;;;;;4997642;28;20465;-77
2022/10/27 01:35:49;;;;;;;51.65;20.20;;;13.00;99.90;;;;;;5013570;28;20042;-77
2022/10/27 01:38:24;;;;;;;44.92;17.55;;;13.10;99.90;;;;;;4997734;28;20148;-76
2022/10/27 01:41:11;;;;;;;46.92;18.70;;;12.90;99.90;;;;;;4997788;28;20046;-77
2022/10/27 01:43:39;;;;;;;54.42;16.70;;;12.90;99.90;;;;;;4996374;28;20061;-76
2022/10/27 01:46:10;;;;;;;39.83;13.65;;;12.80;99.90;;;;;;4997928;28;20049;-77
2022/10/27 01:48:38;;;;;;;34.53;13.20;;;12.70;99.90;;;;;;4996841;28;20056;-77
2022/10/27 01:51:06;;;;;;;;;;;12.80;99.90;;;;;;5015105;28;20057;-76
2022/10/27 01:53:38;;;;;;;44.78;12.50;;;12.80;99.90;;;;;;5014538;28;19921;-76
2022/10/27 01:56:06;;;;;;;35.08;12.45;;;12.70;99.90;;;;;;5013296;28;20042;-77
2022/10/27 01:58:59;;;;;;;36.80;13.10;;;12.80;99.90;;;;;;4997472;28;20046;-77
2022/10/27 02:01:47;;;;;;;33.42;11.80;;;12.80;99.90;;;;;;4997704;28;20369;-76
2022/10/27 02:04:40;;;;;;;33.72;11.00;;;12.80;99.90;;;;;;4997450;28;20042;-76
2022/10/27 02:07:12;;;;;;;41.63;12.35;;;12.70;99.90;;;;;;5014444;28;20046;-77
2022/10/27 02:09:53;;;;;;;43.65;13.23;;;12.70;99.90;;;;;;4996309;28;20053;-76
2022/10/27 02:12:32;;;;;;;32.03;12.70;;;12.70;99.90;;;;;;4999298;28;20046;-77
2022/10/27 02:15:25;;;;;;;27.23;10.73;;;12.70;99.90;;;;;;5016827;28;20053;-76
2022/10/27 02:18:01;;;;;;;37.00;10.25;;;12.60;99.90;;;;;;5010052;28;20354;-76
2022/10/27 02:20:32;;;;;;;37.42;11.18;;;12.60;99.90;;;;;;5017889;28;20046;-77
2022/10/27 02:23:06;;;;;;;40.70;12.27;;;13.10;99.90;;;;;;4999365;28;20049;-76
2022/10/27 02:26:12;;;;;;;45.13;14.05;;;12.60;99.90;;;;;;5017548;28;20397;-77
2022/10/27 02:28:59;;;;;;;43.50;15.35;;;12.60;99.90;;;;;;5016352;28;20469;-76
2022/10/27 02:31:33;;;;;;;45.92;15.77;;;12.60;99.90;;;;;;5017343;28;20334;-76
2022/10/27 02:34:02;;;;;;;50.55;17.23;;;13.40;99.90;;;;;;5000813;28;20068;-76
2022/10/27 02:36:30;;;;;;;48.55;16.40;;;12.60;99.90;;;;;;5016599;28;20356;-76
2022/10/27 02:38:58;;;;;;;57.97;19.88;;;12.60;99.90;;;;;;5017657;28;20042;-76
2022/10/27 02:41:26;;;;;;;57.97;19.38;;;12.50;99.90;;;;;;4999957;28;20511;-76
2022/10/27 02:43:53;;;;;;;61.75;22.45;;;12.70;99.90;;;;;;5017052;28;20050;-76
2022/10/27 02:46:21;;;;;;;70.72;25.38;;;13.10;99.90;;;;;;5017577;28;20069;-76
2022/10/27 02:48:48;;;;;;;75.38;25.77;;;13.00;99.90;;;;;;4998754;28;20053;-77
2022/10/27 02:51:16;;;;;;;74.88;27.50;;;12.70;99.90;;;;;;5016997;28;20050;-76
2022/10/27 02:53:43;;;;;;;88.55;32.63;;;12.60;99.90;;;;;;5017071;28;20057;-76
2022/10/27 02:56:11;;;;;;;85.07;31.30;;;12.70;99.90;;;;;;5015870;28;20046;-77
2022/10/27 02:58:38;;;;;;;79.53;31.27;;;12.70;99.90;;;;;;5016836;28;20481;-77
2022/10/27 03:01:06;;;;;;;83.88;29.08;;;12.70;99.90;;;;;;4999580;28;20046;-77
2022/10/27 03:03:34;;;;;;;74.53;26.60;;;12.80;99.90;;;;;;5015799;28;20049;-76
2022/10/27 03:06:01;;;;;;;66.47;23.90;;;12.90;99.90;;;;;;5017035;28;20056;-77
2022/10/27 03:08:29;;;;;;;65.10;23.75;;;12.80;99.90;;;;;;5015571;28;20209;-77
2022/10/27 03:10:56;;;;;;;72.03;23.30;;;12.70;99.90;;;;;;5016634;28;20054;-77
2022/10/27 03:13:24;;;;;;;73.90;26.02;;;12.70;99.90;;;;;;5016442;28;20045;-77
2022/10/27 03:15:51;;;;;;;77.53;26.92;;;12.80;99.90;;;;;;4982643;28;20076;-77
2022/10/27 03:18:19;;;;;;;84.18;28.35;;;13.00;99.90;;;;;;5016355;28;20042;-77
2022/10/27 03:20:46;;;;;;;74.97;27.48;;;12.60;99.90;;;;;;5016555;28;20038;-77
2022/10/27 03:23:14;;;;;;;79.57;28.23;;;12.60;99.90;;;;;;5014422;28;20458;-77
2022/10/27 03:25:43;;;;;;;67.72;24.75;;;12.60;99.90;;;;;;5016602;28;20050;-77
2022/10/27 03:28:14;;;;;;;68.97;26.45;;;12.60;99.90;;;;;;5015652;28;20061;-76
2022/10/27 03:30:42;;;;;;;81.07;28.50;;;12.70;99.90;;;;;;4999067;28;20073;-77
2022/10/27 03:33:10;;;;;;;66.22;24.48;;;13.20;99.90;;;;;;4999198;28;20049;-76
2022/10/27 03:35:37;;;;;;;63.50;23.23;;;12.80;99.90;;;;;;5015226;28;20052;-76
2022/10/27 03:38:05;;;;;;;65.57;24.10;;;13.10;99.90;;;;;;5016225;28;20046;-77
2022/10/27 03:40:32;;;;;;;56.40;22.23;;;12.90;99.90;;;;;;4982768;28;20046;-76
2022/10/27 03:43:00;;;;;;;42.78;17.52;;;12.90;99.90;;;;;;4997732;28;20290;-76
2022/10/27 03:45:27;;;;;;;50.45;20.73;;;13.00;99.90;;;;;;5016325;28;20358;-76
2022/10/27 03:47:59;;;;;;;53.42;19.88;;;13.10;99.90;;;;;;4999056;28;20073;-76
2022/10/27 03:50:27;;;;;;;48.20;18.90;;;13.00;99.90;;;;;;4997797;28;20054;-76
2022/10/27 03:52:55;;;;;;;50.15;18.60;;;13.10;99.90;;;;;;5015723;28;20430;-76
2022/10/27 03:55:23;;;;;;;47.15;17.70;;;13.20;99.90;;;;;;5015190;28;20050;-76
2022/10/27 03:57:51;;;;;;;52.40;16.15;;;13.10;99.90;;;;;;4998535;28;20046;-76
2022/10/27 04:00:19;;;;;;;;;;;13.30;99.90;;;;;;4998954;28;20046;-76
2022/10/27 04:02:47;;;;;;;48.88;18.95;;;13.20;99.90;;;;;;5014882;28;19921;-76
2022/10/27 04:05:14;;;;;;;71.18;21.77;;;13.30;99.90;;;;;;5015636;28;20469;-76
2022/10/27 04:07:42;;;;;;;68.00;22.80;;;13.40;99.90;;;;;;5015620;28;20449;-76
2022/10/27 04:10:14;;;;;;;68.60;23.90;;;13.50;99.90;;;;;;4997515;28;20057;-76
2022/10/27 04:12:49;;;;;;;70.65;22.63;;;13.60;99.90;;;;;;5015576;28;20480;-76
2022/10/27 04:15:18;;;;;;;64.65;22.85;;;13.70;99.90;;;;;;5014715;28;20046;-76
2022/10/27 04:17:46;;;;;;;71.65;23.65;;;13.80;99.90;;;;;;5015585;28;20060;-77
2022/10/27 04:20:14;;;;;;;;;;;14.00;99.90;;;;;;5016014;28;20045;-76
2022/10/27 04:22:41;;;;;;;56.10;21.20;;;13.90;99.90;;;;;;5013373;28;19925;-76
2022/10/27 04:25:09;;;;;;;52.58;20.42;;;13.90;99.90;;;;;;5014907;28;20049;-76
2022/10/27 04:27:36;;;;;;;48.85;17.83;;;14.00;99.90;;;;;;5015499;28;20053;-76
2022/10/27 04:30:04;;;;;;;49.60;18.65;;;14.00;99.90;;;;;;5013653;28;20061;-76
2022/10/27 04:32:32;;;;;;;52.13;17.40;;;14.00;99.90;;;;;;5015119;28;20468;-76
2022/10/27 04:34:59;;;;;;;44.70;16.98;;;14.00;99.90;;;;;;5013533;28;20381;-75
2022/10/27 04:37:26;;;;;;;50.85;17.02;;;14.20;99.90;;;;;;5015136;28;20481;-76
2022/10/27 04:39:54;;;;;;;42.50;16.00;;;14.00;99.90;;;;;;5015625;28;20045;-76
2022/10/27 04:42:21;;;;;;;38.03;16.83;;;14.10;99.90;;;;;;5013410;28;20283;-76
2022/10/27 04:44:49;;;;;;;39.20;15.35;;;14.00;99.90;;;;;;5014283;28;20599;-76
2022/10/27 04:47:16;;;;;;;45.33;15.10;;;14.00;99.90;;;;;;5014063;28;20046;-76
2022/10/27 04:49:44;;;;;;;41.47;14.60;;;14.10;99.90;;;;;;5017640;28;20064;-76
2022/10/27 04:52:11;;;;;;;44.65;13.95;;;14.10;99.90;;;;;;5034706;28;20484;-76
2022/10/27 04:54:44;;;;;;;36.05;13.32;;;14.10;99.90;;;;;;5034091;28;20045;-76
2022/10/27 04:57:11;;;;;;;33.92;12.68;;;14.10;99.90;;;;;;5033495;28;20042;-76
2022/10/27 04:59:39;;;;;;;34.40;11.73;;;14.10;99.90;;;;;;5034743;28;20041;-76
2022/10/27 05:02:06;;;;;;;26.67;11.48;;;14.10;99.90;;;;;;5033340;28;20049;-76
2022/10/27 05:04:34;;;;;;;30.75;11.40;;;14.10;99.90;;;;;;5034753;28;20046;-76
2022/10/27 05:07:02;;;;;;;23.98;11.00;;;14.10;99.90;;;;;;5033802;28;20045;-76
2022/10/27 05:09:29;;;;;;;32.80;11.15;;;14.10;99.90;;;;;;5033562;28;20041;-76
2022/10/27 05:11:57;;;;;;;29.13;11.25;;;14.00;99.90;;;;;;5017431;28;20041;-76
2022/10/27 05:14:24;;;;;;;26.08;9.82;;;14.00;99.90;;;;;;5035175;28;20045;-76
2022/10/27 05:16:51;;;;;;;27.65;9.48;;;14.00;99.90;;;;;;5015327;28;20046;-76
2022/10/27 05:19:19;;;;;;;27.95;9.30;;;14.00;99.90;;;;;;5032206;28;20050;-76
2022/10/27 05:21:47;;;;;;;27.88;8.73;;;14.00;99.90;;;;;;4997748;28;20076;-76
2022/10/27 05:24:15;;;;;;;33.58;9.60;;;14.00;99.90;;;;;;5034222;28;20045;-76
2022/10/27 05:26:42;;;;;;;;;;;13.90;99.90;;;;;;5035025;28;20056;-76
2022/10/27 05:29:12;;;;;;;22.92;7.93;;;13.90;99.90;;;;;;5033460;28;19921;-76
2022/10/27 05:31:40;;;;;;;28.70;7.72;;;13.90;99.90;;;;;;5000862;28;20049;-76
2022/10/27 05:34:07;;;;;;;30.05;8.38;;;13.90;99.90;;;;;;5034674;28;20041;-76
2022/10/27 05:36:34;;;;;;;27.52;7.40;;;13.90;99.90;;;;;;5033299;28;20042;-76
2022/10/27 05:39:08;;;;;;;34.97;7.63;;;13.90;99.90;;;;;;5017123;28;20046;-76
2022/10/27 05:41:38;;;;;;;21.40;7.22;;;13.90;99.90;;;;;;5033173;28;20041;-76
2022/10/27 05:44:05;;;;;;;24.25;6.63;;;13.90;99.90;;;;;;5034721;28;20045;-76
2022/10/27 05:46:33;;;;;;;26.67;6.63;;;13.90;99.90;;;;;;5035329;28;20041;-76
2022/10/27 05:49:00;;;;;;;23.20;6.13;;;14.00;99.90;;;;;;5036855;28;20079;-76
2022/10/27 05:51:28;;;;;;;19.02;5.18;;;13.90;99.90;;;;;;5020876;28;20052;-76
2022/10/27 05:53:58;;;;;;;22.90;5.20;;;14.00;99.90;;;;;;5038456;28;20068;-76
2022/10/27 05:56:25;;;;;;;21.38;5.13;;;14.10;99.90;;;;;;5019571;28;20054;-76
2022/10/27 05:58:53;;;;;;;17.67;4.20;;;14.10;99.90;;;;;;5038038;28;20361;-76
2022/10/27 06:01:20;;;;;;;18.67;4.85;;;14.10;99.90;;;;;;5020688;28;20476;-76
2022/10/27 06:03:51;;;;;;;19.73;4.25;;;14.20;99.90;;;;;;5036832;28;20058;-76
2022/10/27 06:06:18;;;;;;;18.70;3.97;;;14.30;99.90;;;;;;5037841;28;20046;-76
2022/10/27 06:08:48;;;;;;;18.00;4.10;;;14.30;99.90;;;;;;5036534;28;20060;-76
2022/10/27 06:11:16;;;;;;;19.75;4.22;;;14.30;99.90;;;;;;5037583;28;20056;-76
2022/10/27 06:13:43;;;;;;;20.55;3.90;;;14.30;99.90;;;;;;5037568;28;20041;-76
2022/10/27 06:16:11;;;;;;;18.17;4.20;;;14.30;99.90;;;;;;5036539;28;20043;-76
2022/10/27 06:18:39;;;;;;;;;;;14.30;99.90;;;;;;5039577;28;20063;-76
2022/10/27 06:21:07;;;;;;;22.30;3.78;;;14.30;99.90;;;;;;5020348;28;20387;-76
2022/10/27 06:23:36;;;;;;;18.83;3.67;;;14.40;99.90;;;;;;5036360;28;20054;-76
2022/10/27 06:26:04;;;;;;;18.80;3.95;;;14.40;99.90;;;;;;5037555;28;20045;-76
2022/10/27 06:28:32;;;;;;;24.88;4.18;;;14.40;99.90;;;;;;5018873;28;20042;-76
2022/10/27 06:30:59;;;;;;;22.85;4.25;;;14.40;99.90;;;;;;5037372;28;20056;-76
2022/10/27 06:33:29;;;;;;;20.75;3.78;;;14.50;99.90;;;;;;5037230;28;20052;-76
2022/10/27 06:35:57;;;;;;;14.30;3.55;;;14.50;99.90;;;;;;5019197;28;20491;-76
2022/10/27 06:38:25;;;;;;;17.30;3.53;;;14.50;99.90;;;;;;5037340;28;20041;-76
2022/10/27 06:40:53;;;;;;;17.23;3.70;;;14.50;99.90;;;;;;5019721;28;20045;-76
2022/10/27 06:43:21;;;;;;;17.40;3.50;;;14.50;99.90;;;;;;5018616;28;20069;-76
2022/10/27 06:45:52;;;;;;;16.42;3.20;;;14.50;99.90;;;;;;5036912;28;20064;-76
2022/10/27 06:48:24;;;;;;;16.83;3.15;;;14.40;99.90;;;;;;5035795;28;20057;-76
2022/10/27 06:50:53;;;;;;;13.70;3.50;;;14.10;99.90;;;;;;5037233;28;20049;-76
2022/10/27 06:53:21;;;;;;;17.25;3.55;;;14.40;99.90;;;;;;5003318;28;20049;-76
2022/10/27 06:55:48;;;;;;;16.27;3.50;;;14.40;99.90;;;;;;5035809;28;20041;-76
2022/10/27 06:58:19;;;;;;;14.68;3.53;;;14.50;99.90;;;;;;5036327;28;20054;-76
2022/10/27 07:00:47;;;;;;;15.23;3.08;;;14.50;99.90;;;;;;5019963;28;20045;-76
2022/10/27 07:03:15;;;;;;;14.55;3.42;;;14.50;99.90;;;;;;5018538;28;20054;-76
2022/10/27 07:05:43;;;;;;;27.88;4.13;;;14.40;99.90;;;;;;5003227;28;20053;-76
2022/10/27 07:08:19;;;;;;;14.48;3.55;;;14.60;99.90;;;;;;5018502;28;20041;-76
2022/10/27 07:10:54;;;;;;;12.38;3.03;;;14.50;99.90;;;;;;5003403;28;20053;-76
2022/10/27 07:13:22;;;;;;;17.80;3.28;;;14.60;99.90;;;;;;5036877;28;20048;-76
2022/10/27 07:15:52;;;;;;;17.50;3.47;;;14.60;99.90;;;;;;5035769;28;20052;-76
2022/10/27 07:18:20;;;;;;;16.38;3.40;;;14.60;99.90;;;;;;5018761;28;20376;-76
2022/10/27 07:20:50;;;;;;;18.17;3.60;;;14.70;99.90;;;;;;5035719;28;20042;-77
2022/10/27 07:23:17;;;;;;;15.27;3.50;;;14.70;99.90;;;;;;5034816;28;20041;-75
2022/10/27 07:25:48;;;;;;;8.68;2.80;;;14.70;99.90;;;;;;5018631;28;20052;-76
2022/10/27 07:28:16;;;;;;;12.50;2.83;;;14.80;99.90;;;;;;5017796;28;20053;-76
2022/10/27 07:30:44;;;;;;;19.08;3.38;;;14.80;99.90;;;;;;5002361;28;20476;-77
2022/10/27 07:33:11;;;;;;;13.40;2.92;;;14.80;99.90;;;;;;5018243;28;20061;-76
2022/10/27 07:35:40;;;;;;;12.50;2.97;;;14.90;99.90;;;;;;5034562;28;20049;-75
2022/10/27 07:38:07;;;;;;;17.08;3.40;;;14.90;99.90;;;;;;5035743;28;20461;-76
2022/10/27 07:40:35;;;;;;;14.52;3.30;;;14.90;99.90;;;;;;5018673;28;20042;-75
2022/10/27 07:43:03;;;;;;;16.98;3.35;;;14.90;99.90;;;;;;5033769;28;20057;-76
2022/10/27 07:45:39;;;;;;;18.38;3.28;;;14.90;99.90;;;;;;5035941;28;20342;-75
2022/10/27 07:48:13;;;;;;;17.42;3.45;;;15.00;99.90;;;;;;5018385;28;20037;-77
2022/10/27 07:50:42;;;;;;;14.43;3.20;;;14.90;99.90;;;;;;5015807;28;20037;-75
2022/10/27 07:53:10;;;;;;;19.27;3.20;;;15.00;99.90;;;;;;5035299;28;20037;-75
2022/10/27 07:55:38;;;;;;;13.23;3.13;;;15.00;99.90;;;;;;5034373;28;20050;-74
2022/10/27 07:58:15;;;;;;;13.05;3.40;;;15.00;99.90;;;;;;5002000;28;20070;-74
2022/10/27 08:00:47;;;;;;;15.45;3.20;;;15.10;99.90;;;;;;5034632;28;20054;-75
2022/10/27 08:03:20;;;;;;;14.90;3.20;;;15.10;99.90;;;;;;5034067;28;20049;-75
2022/10/27 08:05:48;;;;;;;19.27;3.78;;;15.10;99.90;;;;;;5017976;28;20128;-76
2022/10/27 08:08:17;;;;;;;13.75;3.22;;;15.20;99.90;;;;;;5034686;28;20053;-75
2022/10/27 08:10:46;;;;;;;19.52;3.30;;;15.20;99.90;;;;;;5034714;28;20046;-75
2022/10/27 08:13:14;;;;;;;10.75;3.28;;;15.20;99.90;;;;;;5035054;28;20052;-74
2022/10/27 08:15:42;;;;;;;15.18;3.75;;;15.20;99.90;;;;;;5034595;28;20041;-75
2022/10/27 08:18:10;;;;;;;14.82;3.50;;;15.20;99.90;;;;;;5035100;28;20056;-75
2022/10/27 08:20:40;;;;;;;19.17;3.80;;;15.30;99.90;;;;;;5035273;28;20424;-74
2022/10/27 08:23:13;;;;;;;13.65;3.60;;;15.30;99.90;;;;;;5017153;28;20037;-75
2022/10/27 08:25:42;;;;;;;16.35;3.67;;;15.40;99.90;;;;;;5018502;28;20045;-74
2022/10/27 08:28:10;;;;;;;17.33;3.97;;;15.40;99.90;;;;;;5034838;28;20045;-75
2022/10/27 08:30:38;;;;;;;21.58;4.03;;;15.40;99.90;;;;;;5018412;28;20357;-75
2022/10/27 08:33:21;;;;;;;19.30;3.70;;;15.50;99.90;;;;;;5019738;28;20056;-75
2022/10/27 08:35:50;;;;;;;18.20;3.97;;;15.50;99.90;;;;;;5034598;28;20045;-76
2022/10/27 08:38:18;;;;;;;20.05;4.10;;;15.60;99.90;;;;;;5035058;28;20042;-75
2022/10/27 08:41:06;;;;;;;16.15;4.10;;;15.80;99.90;;;;;;5018244;28;20065;-75
2022/10/27 08:43:54;;;;;;;19.65;4.13;;;15.80;99.90;;;;;;5016982;28;20060;-75
2022/10/27 08:47:03;;;;;;;18.13;3.65;;;16.00;99.90;;;;;;5035069;28;20050;-74
2022/10/27 08:49:42;;;;;;;14.10;3.72;;;16.10;99.90;;;;;;4957316;28;20047;-75
2022/10/27 08:52:31;;;;;;;17.45;3.63;;;16.30;99.90;;;;;;5013078;28;20046;-74
2022/10/27 08:55:22;;;;;;;19.52;3.58;;;16.30;99.90;;;;;;5016934;28;20053;-75
2022/10/27 08:58:30;;;;;;;14.80;3.70;;;16.40;99.90;;;;;;5015255;28;20066;-72
2022/10/27 09:01:03;;;;;;;;;;;16.50;99.90;;;;;;5014721;28;20057;-74
2022/10/27 09:04:08;;;;;;;23.92;3.65;;;16.50;99.90;;;;;;4996758;28;19948;-77
2022/10/27 09:06:54;;;;;;;20.50;4.63;;;16.60;99.90;;;;;;5014862;28;20052;-75
2022/10/27 09:09:22;;;;;;;18.38;4.20;;;16.60;99.90;;;;;;5016508;28;20377;-75
2022/10/27 09:12:09;;;;;;;18.87;3.73;;;16.70;99.90;;;;;;5034413;28;20049;-74
2022/10/27 09:14:58;;;;;;;20.02;4.47;;;16.70;99.90;;;;;;5034407;28;20291;-77
2022/10/27 09:17:31;;;;;;;24.75;4.32;;;16.80;99.90;;;;;;5020897;28;20042;-75
2022/10/27 09:20:06;;;;;;;19.38;3.92;;;16.80;99.90;;;;;;5014603;28;20050;-75
2022/10/27 09:22:40;;;;;;;24.33;3.90;;;16.80;99.90;;;;;;5015898;28;20037;-75
2022/10/27 09:25:21;;;;;;;21.48;4.35;;;16.80;99.90;;;;;;5038435;28;20062;-74
2022/10/27 09:27:54;;;;;;;15.23;4.03;;;16.80;99.90;;;;;;5038368;28;20131;-74
2022/10/27 09:30:22;;;;;;;20.85;4.07;;;16.80;99.90;;;;;;5023786;28;20045;-75
2022/10/27 09:32:53;;;;;;;21.65;4.65;;;16.80;99.90;;;;;;5017744;28;20042;-76
2022/10/27 09:35:24;;;;;;;18.95;3.97;;;16.80;99.90;;;;;;5017173;28;20046;-74
2022/10/27 09:37:52;;;;;;;27.10;4.25;;;16.90;99.90;;;;;;5001233;28;20041;-75
2022/10/27 09:40:21;;;;;;;24.83;4.22;;;16.80;99.90;;;;;;5018197;28;20042;-76
2022/10/27 09:42:55;;;;;;;22.27;4.70;;;16.80;99.90;;;;;;5016975;28;20041;-74
2022/10/27 09:45:25;;;;;;;20.38;4.38;;;16.80;99.90;;;;;;5000640;28;20056;-75
2022/10/27 09:47:59;;;;;;;23.00;4.40;;;16.80;99.90;;;;;;5017981;28;20068;-75
2022/10/27 09:50:48;;;;;;;21.05;4.50;;;16.80;99.90;;;;;;4999780;28;20038;-77
2022/10/27 09:53:51;;;;;;;25.00;4.82;;;16.80;99.90;;;;;;5017821;28;20050;-77
2022/10/27 09:56:30;;;;;;;21.88;4.30;;;16.80;99.90;;;;;;5016745;28;20049;-76
2022/10/27 09:59:01;;;;;;;19.95;4.70;;;16.80;99.90;;;;;;5017570;28;20046;-76
2022/10/27 10:01:38;;;;;;;19.40;4.03;;;16.80;99.90;;;;;;5017640;28;20042;-75
2022/10/27 10:04:23;;;;;;;16.23;4.22;;;16.80;99.90;;;;;;5000578;28;20050;-77
2022/10/27 10:07:04;;;;;;;23.20;4.28;;;16.80;99.90;;;;;;5017798;28;20057;-77
2022/10/27 10:09:35;;;;;;;16.17;3.90;;;16.90;99.90;;;;;;5016579;28;20372;-76
2022/10/27 10:12:21;;;;;;;17.52;4.07;;;17.00;99.90;;;;;;5017543;28;20122;-77
2022/10/27 10:15:11;;;;;;;19.20;3.65;;;17.00;99.90;;;;;;5016162;28;20057;-76
2022/10/27 10:17:49;;;;;;;21.38;4.03;;;17.10;99.90;;;;;;5017303;28;20049;-76
2022/10/27 10:20:40;;;;;;;21.63;4.22;;;17.10;99.90;;;;;;5033879;28;20464;-74
2022/10/27 10:23:33;;;;;;;22.92;4.05;;;17.20;99.90;;;;;;5036072;28;20041;-77
2022/10/27 10:26:03;;;;;;;15.82;3.63;;;17.20;99.90;;;;;;5037172;28;20049;-73
2022/10/27 10:28:34;;;;;;;23.75;4.63;;;17.30;99.90;;;;;;5034887;28;20068;-74
2022/10/27 10:31:05;;;;;;;15.98;3.67;;;17.30;99.90;;;;;;5036113;28;20045;-74
2022/10/27 10:33:36;;;;;;;20.05;3.60;;;17.50;99.90;;;;;;5036381;28;20049;-74
2022/10/27 10:36:37;;;;;;;18.85;4.00;;;17.60;99.90;;;;;;5035854;28;20045;-74
2022/10/27 10:39:26;;;;;;;16.60;3.60;;;17.80;99.90;;;;;;5025262;28;20068;-74
2022/10/27 10:42:08;;;;;;;16.15;3.45;;;18.00;99.90;;;;;;5035878;28;20053;-75
2022/10/27 10:44:36;;;;;;;15.32;3.80;;;18.20;99.90;;;;;;5036786;28;20499;-73
2022/10/27 10:47:06;;;;;;;14.52;3.28;;;18.40;99.90;;;;;;5036748;28;20049;-75
2022/10/27 10:49:40;;;;;;;14.68;3.22;;;18.50;99.90;;;;;;5035594;28;20396;-74
2022/10/27 10:52:19;;;;;;;14.23;3.17;;;18.60;99.90;;;;;;5053951;28;20041;-74
2022/10/27 10:54:47;;;;;;;17.58;3.28;;;18.60;99.90;;;;;;5036860;28;20041;-73
2022/10/27 10:57:35;;;;;;;15.02;3.22;;;18.70;99.90;;;;;;5042595;28;20472;-77
2022/10/27 11:00:05;;;;;;;11.68;2.70;;;18.80;99.90;;;;;;5056617;28;20045;-75
2022/10/27 11:02:33;;;;;;;14.80;2.70;;;18.80;99.90;;;;;;5055477;28;20049;-73
2022/10/27 11:05:12;;;;;;;;;;;18.90;99.90;;;;;;5057394;28;20053;-74
2022/10/27 11:07:40;;;;;;;11.45;2.90;;;18.90;99.90;;;;;;5056205;28;19921;-74
2022/10/27 11:10:18;;;;;;;13.23;2.70;;;18.90;99.90;;;;;;5047633;28;20056;-78
2022/10/27 11:13:01;;;;;;;15.65;3.22;;;18.90;99.90;;;;;;5036937;28;20053;-74
2022/10/27 11:15:43;;;;;;;12.55;2.90;;;18.90;99.90;;;;;;5035188;28;20056;-73
2022/10/27 11:18:14;;;;;;;14.93;3.00;;;18.70;99.90;;;;;;5035032;28;20045;-73
2022/10/27 11:20:45;;;;;;;15.45;3.13;;;18.70;99.90;;;;;;5016686;28;20045;-74
2022/10/27 11:23:22;;;;;;;14.10;3.17;;;18.70;99.90;;;;;;5015552;28;20038;-73
2022/10/27 11:25:51;;;;;;;14.23;2.90;;;18.60;99.90;;;;;;4999219;28;20104;-73
2022/10/27 11:28:45;;;;;;;16.95;3.20;;;18.60;99.90;;;;;;5015541;28;20449;-73
2022/10/27 11:31:27;;;;;;;16.02;2.92;;;18.50;99.90;;;;;;5016206;28;20057;-72
2022/10/27 11:34:20;;;;;;;15.07;3.22;;;18.60;99.90;;;;;;4999864;28;20042;-72
2022/10/27 11:36:58;;;;;;;11.77;2.67;;;18.60;99.90;;;;;;5015117;28;20042;-75
2022/10/27 11:39:52;;;;;;;13.23;2.92;;;18.60;99.90;;;;;;5016403;28;20038;-74
2022/10/27 11:42:44;;;;;;;15.05;3.15;;;18.60;99.90;;;;;;5015513;28;20052;-73
2022/10/27 11:45:18;;;;;;;15.15;3.08;;;18.70;99.90;;;;;;5035838;28;20053;-73
2022/10/27 11:47:52;;;;;;;11.85;3.08;;;18.60;99.90;;;;;;5016032;28;20061;-73
2022/10/27 11:50:23;;;;;;;11.00;2.53;;;18.70;99.90;;;;;;5014954;28;20469;-73
2022/10/27 11:52:56;;;;;;;12.48;3.13;;;18.70;99.90;;;;;;4998794;28;20053;-73
2022/10/27 11:55:47;;;;;;;8.38;2.33;;;18.70;99.90;;;;;;5021686;28;20380;-73
2022/10/27 11:58:59;;;;;;;9.60;2.80;;;18.80;99.90;;;;;;5035520;28;20064;-73
2022/10/27 12:01:37;;;;;;;15.23;3.20;;;18.90;99.90;;;;;;5034432;28;20041;-75
2022/10/27 12:04:31;;;;;;;11.30;2.83;;;19.00;99.90;;;;;;5013894;28;20064;-74
2022/10/27 12:07:19;;;;;;;12.38;2.80;;;19.10;99.90;;;;;;5112429;27;20330;-75
2022/10/27 12:10:10;;;;;;;13.25;2.70;;;19.10;99.90;;;;;;5090917;28;20040;-74
2022/10/27 12:12:45;;;;;;;14.13;3.10;;;19.10;99.90;;;;;;5091972;28;20059;-74
2022/10/27 12:15:19;;;;;;;13.77;2.50;;;19.10;99.90;;;;;;5056731;28;20040;-74
2022/10/27 12:18:15;;;;;;;14.02;3.08;;;19.10;99.90;;;;;;5091782;28;20067;-74
2022/10/27 12:20:52;;;;;;;11.77;2.80;;;19.20;99.90;;;;;;5091884;28;20355;-74
2022/10/27 12:23:28;;;;;;;13.50;2.90;;;19.30;99.90;;;;;;5072969;28;20044;-74
2022/10/27 12:26:16;;;;;;;15.90;2.90;;;19.50;99.90;;;;;;5091612;28;20482;-74
2022/10/27 12:28:45;;;;;;;17.52;3.40;;;19.60;99.90;;;;;;5072984;28;20040;-76
2022/10/27 12:31:18;;;;;;;16.92;3.20;;;19.70;99.90;;;;;;5057370;28;20502;-76
2022/10/27 12:33:58;;;;;;;14.85;3.33;;;19.80;99.90;;;;;;5073572;28;20040;-75
2022/10/27 12:36:25;;;;;;;17.23;3.13;;;19.90;99.90;;;;;;5090408;28;20066;-76
2022/10/27 12:38:56;;;;;;;11.25;3.03;;;19.90;99.90;;;;;;5073885;28;20044;-72
2022/10/27 12:41:34;;;;;;;16.13;3.00;;;20.00;99.90;;;;;;5091439;28;20055;-74
2022/10/27 12:44:28;;;;;;;14.32;2.75;;;19.40;99.90;;;;;;5073511;28;20487;-74
2022/10/27 12:47:04;;;;;;;18.60;2.72;;;20.20;99.90;;;;;;5083017;28;20051;-75
2022/10/27 12:49:54;;;;;;;11.85;2.40;;;20.20;99.90;;;;;;5070744;28;20049;-70
2022/10/27 12:52:25;;;;;;;12.68;2.47;;;20.30;99.90;;;;;;5075010;28;20040;-70
2022/10/27 12:55:34;;;;;;;11.02;2.72;;;20.40;99.90;;;;;;5090591;28;20044;-70
2022/10/27 12:58:07;;;;;;;10.30;2.45;;;20.40;99.90;;;;;;5090651;28;20071;-70
2022/10/27 13:00:55;;;;;;;9.43;2.45;;;20.50;99.90;;;;;;5073565;28;20401;-71
2022/10/27 13:03:22;;;;;;;10.43;2.00;;;20.60;99.90;;;;;;5090329;28;20047;-72
2022/10/27 13:06:11;;;;;;;10.85;2.40;;;20.50;99.90;;;;;;5066348;28;20084;-71
2022/10/27 13:09:15;;;;;;;10.20;2.25;;;20.40;99.90;;;;;;5032676;28;20060;-70